createdAt,value
2023-05-16T00:01:20.005Z,86.69
2023-05-16T00:03:46.719Z,86.73
2023-05-16T00:06:13.389Z,86.67
2023-05-16T00:08:39.992Z,86.06
2023-05-16T00:11:06.457Z,85.58
2023-05-16T00:13:33.070Z,84.71
2023-05-16T00:16:02.488Z,86.39
2023-05-16T00:18:29.007Z,85.73
2023-05-16T00:20:56.078Z,85.44
2023-05-16T00:23:22.718Z,84.55
2023-05-16T00:25:49.248Z,84.92
2023-05-16T00:28:15.772Z,84.32
2023-05-16T00:30:42.336Z,84.65
2023-05-16T00:33:08.970Z,84.06
2023-05-16T00:35:35.580Z,85.36
2023-05-16T00:38:02.151Z,85.91
2023-05-16T00:40:29.001Z,86.06
2023-05-16T00:42:55.827Z,86.84
2023-05-16T00:45:22.558Z,86.56
2023-05-16T00:47:49.161Z,86.65
2023-05-16T00:50:16.824Z,86.93
2023-05-16T00:52:43.668Z,87.30
2023-05-16T00:55:10.938Z,87.21
2023-05-16T00:57:38.321Z,87.42
2023-05-16T01:00:07.293Z,87.64
2023-05-16T01:02:34.940Z,88.32
2023-05-16T01:05:02.007Z,88.17
2023-05-16T01:07:28.865Z,87.43
2023-05-16T01:09:55.515Z,88.00
2023-05-16T01:12:33.925Z,88.78
2023-05-16T01:15:21.218Z,88.55
2023-05-16T01:18:00.785Z,88.16
2023-05-16T01:20:45.471Z,88.75
2023-05-16T01:23:57.366Z,89.24
2023-05-16T01:26:26.954Z,89.45
2023-05-16T01:28:54.739Z,90.22
2023-05-16T01:31:22.524Z,89.66
2023-05-16T01:33:49.856Z,89.78
2023-05-16T01:36:44.222Z,90.00
2023-05-16T01:39:42.330Z,89.66
2023-05-16T01:42:14.269Z,89.90
2023-05-16T01:44:46.806Z,89.81
2023-05-16T01:47:16.358Z,89.75
2023-05-16T01:49:58.080Z,90.04
2023-05-16T01:52:31.325Z,90.03
2023-05-16T01:54:59.368Z,90.48
2023-05-16T01:57:27.150Z,90.77
2023-05-16T01:59:53.864Z,90.42
2023-05-16T02:02:20.893Z,90.70
2023-05-16T02:04:47.454Z,90.20
2023-05-16T02:07:15.111Z,90.26
2023-05-16T02:09:41.748Z,90.37
2023-05-16T02:12:08.565Z,91.20
2023-05-16T02:14:35.106Z,90.78
2023-05-16T02:17:01.798Z,90.78
2023-05-16T02:19:28.680Z,90.91
2023-05-16T02:21:55.222Z,90.90
2023-05-16T02:24:21.690Z,91.07
2023-05-16T02:26:48.429Z,91.28
2023-05-16T02:29:16.564Z,91.50
2023-05-16T02:31:43.490Z,91.83
2023-05-16T02:34:10.986Z,91.60
2023-05-16T02:36:37.621Z,91.48
2023-05-16T02:39:04.263Z,91.20
2023-05-16T02:41:31.846Z,91.27
2023-05-16T02:43:58.697Z,91.13
2023-05-16T02:46:34.082Z,91.73
2023-05-16T02:49:01.549Z,91.99
2023-05-16T02:51:29.051Z,91.98
2023-05-16T02:53:59.813Z,92.06
2023-05-16T02:56:26.775Z,91.85
2023-05-16T02:58:54.586Z,91.98
2023-05-16T03:01:21.267Z,92.00
2023-05-16T03:03:47.975Z,91.99
2023-05-16T03:06:14.544Z,92.01
2023-05-16T03:08:41.584Z,92.03
2023-05-16T03:11:08.516Z,91.98
2023-05-16T03:13:35.133Z,92.14
2023-05-16T03:16:02.245Z,92.02
2023-05-16T03:18:28.859Z,92.13
2023-05-16T03:20:55.420Z,92.38
2023-05-16T03:23:21.979Z,92.38
2023-05-16T03:25:48.722Z,92.76
2023-05-16T03:28:17.171Z,92.88
2023-05-16T03:30:43.912Z,92.74
2023-05-16T03:33:10.598Z,92.85
2023-05-16T03:35:37.273Z,92.76
2023-05-16T03:38:04.037Z,92.81
2023-05-16T03:40:31.030Z,92.82
2023-05-16T03:42:57.630Z,92.79
2023-05-16T03:45:24.341Z,92.32
2023-05-16T03:47:51.360Z,92.07
2023-05-16T03:50:18.058Z,91.73
2023-05-16T03:52:44.628Z,91.54
2023-05-16T03:55:14.480Z,91.31
2023-05-16T03:57:44.656Z,91.33
2023-05-16T04:00:12.751Z,91.04
2023-05-16T04:02:43.934Z,90.76
2023-05-16T04:05:11.713Z,90.91
2023-05-16T04:07:38.466Z,90.44
2023-05-16T04:10:06.399Z,91.19
2023-05-16T04:12:32.995Z,90.64
2023-05-16T04:14:59.640Z,91.10
2023-05-16T04:17:26.314Z,90.84
2023-05-16T04:19:52.901Z,91.18
2023-05-16T04:22:22.039Z,90.94
2023-05-16T04:24:49.135Z,90.88
2023-05-16T04:27:15.761Z,90.97
2023-05-16T04:29:42.406Z,90.82
2023-05-16T04:32:09.621Z,90.42
2023-05-16T04:34:39.793Z,90.55
2023-05-16T04:37:08.628Z,90.08
2023-05-16T04:39:36.681Z,89.89
2023-05-16T04:42:04.452Z,90.05
2023-05-16T04:44:31.177Z,90.15
2023-05-16T04:46:57.912Z,90.22
2023-05-16T04:49:24.468Z,90.20
2023-05-16T04:51:51.166Z,90.29
2023-05-16T04:54:17.707Z,90.16
2023-05-16T04:56:44.121Z,90.27
2023-05-16T04:59:10.634Z,90.56
2023-05-16T05:01:37.414Z,90.28
2023-05-16T05:04:04.075Z,90.28
2023-05-16T05:06:31.518Z,89.96
2023-05-16T05:08:58.174Z,89.93
2023-05-16T05:11:24.716Z,90.03
2023-05-16T05:13:52.891Z,89.87
2023-05-16T05:16:19.585Z,89.47
2023-05-16T05:18:46.372Z,90.03
2023-05-16T05:21:13.041Z,89.32
2023-05-16T05:23:46.130Z,89.73
2023-05-16T05:26:12.784Z,89.55
2023-05-16T05:28:39.410Z,89.43
2023-05-16T05:31:06.676Z,88.48
2023-05-16T05:33:33.442Z,88.42
2023-05-16T05:36:01.909Z,88.40
2023-05-16T05:38:29.978Z,87.98
2023-05-16T05:40:56.979Z,88.36
2023-05-16T05:43:23.478Z,87.71
2023-05-16T05:45:50.173Z,87.88
2023-05-16T05:48:18.176Z,88.60
2023-05-16T05:50:45.053Z,87.61
2023-05-16T05:53:11.645Z,87.55
2023-05-16T05:55:38.275Z,87.37
2023-05-16T05:58:07.070Z,87.64
2023-05-16T06:00:33.912Z,85.99
2023-05-16T06:03:00.463Z,85.26
2023-05-16T06:05:27.194Z,84.73
2023-05-16T06:07:54.138Z,85.01
2023-05-16T06:10:21.550Z,83.10
2023-05-16T06:12:48.574Z,84.12
2023-05-16T06:15:15.287Z,83.66
2023-05-16T06:17:42.198Z,82.60
2023-05-16T06:20:09.123Z,83.36
2023-05-16T06:22:35.715Z,82.88
2023-05-16T06:25:02.282Z,83.24
2023-05-16T06:27:28.862Z,82.88
2023-05-16T06:29:55.654Z,82.10
2023-05-16T06:32:22.268Z,80.75
2023-05-16T06:34:49.509Z,80.27
2023-05-16T06:37:16.288Z,79.29
2023-05-16T06:39:42.851Z,79.06
2023-05-16T06:42:09.367Z,78.19
2023-05-16T06:44:36.002Z,79.42
2023-05-16T06:47:02.792Z,79.42
2023-05-16T06:49:29.574Z,77.33
2023-05-16T06:51:56.437Z,78.29
2023-05-16T06:54:22.989Z,78.00
2023-05-16T06:56:49.666Z,77.62
2023-05-16T06:59:16.334Z,77.60
2023-05-16T07:01:50.963Z,76.32
2023-05-16T07:04:17.870Z,76.39
2023-05-16T07:06:44.444Z,75.34
2023-05-16T07:09:11.597Z,76.27
2023-05-16T07:11:38.418Z,73.41
2023-05-16T07:14:05.115Z,74.51
2023-05-16T07:16:32.059Z,73.19
2023-05-16T07:18:58.640Z,71.92
2023-05-16T07:21:25.433Z,72.48
2023-05-16T07:23:52.064Z,70.01
2023-05-16T07:26:19.004Z,72.55
2023-05-16T07:28:45.698Z,71.60
2023-05-16T07:31:12.280Z,69.77
2023-05-16T07:33:38.965Z,70.07
2023-05-16T07:36:15.964Z,69.87
2023-05-16T07:38:43.937Z,71.10
2023-05-16T07:41:10.517Z,72.32
2023-05-16T07:43:37.574Z,71.99
2023-05-16T07:46:04.429Z,70.96
2023-05-16T07:48:31.196Z,70.39
2023-05-16T07:50:58.046Z,69.52
2023-05-16T07:53:24.898Z,69.29
2023-05-16T07:55:51.707Z,68.19
2023-05-16T07:58:18.506Z,67.29
2023-05-16T08:00:45.119Z,68.64
2023-05-16T08:03:11.787Z,74.91
2023-05-16T08:05:39.486Z,81.47
2023-05-16T08:08:06.298Z,85.96
2023-05-16T08:10:33.199Z,87.26
2023-05-16T08:12:59.894Z,89.35
2023-05-16T08:15:28.260Z,91.18
2023-05-16T08:17:58.600Z,92.95
2023-05-16T08:20:26.003Z,92.37
2023-05-16T08:22:52.650Z,91.89
2023-05-16T08:25:19.345Z,90.57
2023-05-16T08:27:46.835Z,90.19
2023-05-16T08:30:14.289Z,91.28
2023-05-16T08:32:41.052Z,89.05
2023-05-16T08:35:08.153Z,90.16
2023-05-16T08:37:35.145Z,87.56
2023-05-16T08:40:01.952Z,87.10
2023-05-16T08:42:28.535Z,84.80
2023-05-16T08:44:55.162Z,80.00
2023-05-16T08:47:24.926Z,81.92
2023-05-16T08:49:52.462Z,82.01
2023-05-16T08:52:21.460Z,82.54
2023-05-16T08:55:01.932Z,84.17
2023-05-16T08:57:36.808Z,81.79
2023-05-16T09:00:07.686Z,81.11
2023-05-16T09:02:34.410Z,82.87
2023-05-16T09:05:03.206Z,81.39
2023-05-16T09:07:29.820Z,77.83
2023-05-16T09:09:56.584Z,69.68
2023-05-16T09:12:23.211Z,72.88
2023-05-16T09:14:49.939Z,72.43
2023-05-16T09:17:18.673Z,72.10
2023-05-16T09:19:52.916Z,73.70
2023-05-16T09:22:19.766Z,72.12
2023-05-16T09:24:46.946Z,72.82
2023-05-16T09:27:15.461Z,69.07
2023-05-16T09:29:43.899Z,67.29
2023-05-16T09:32:15.618Z,67.32
2023-05-16T09:34:48.411Z,66.42
2023-05-16T09:37:19.168Z,67.41
2023-05-16T09:39:51.111Z,65.14
2023-05-16T09:42:19.990Z,67.48
2023-05-16T09:44:49.074Z,63.28
2023-05-16T09:47:19.310Z,62.76
2023-05-16T09:49:48.469Z,63.55
2023-05-16T09:52:15.263Z,61.61
2023-05-16T09:54:41.973Z,63.30
2023-05-16T09:57:08.929Z,63.55
2023-05-16T09:59:37.419Z,62.07
2023-05-16T10:02:06.136Z,61.65
2023-05-16T10:04:34.220Z,62.67
2023-05-16T10:07:05.722Z,60.66
2023-05-16T10:09:33.622Z,59.96
2023-05-16T10:12:07.972Z,60.60
2023-05-16T10:14:35.868Z,62.29
2023-05-16T10:17:06.615Z,61.16
2023-05-16T10:19:37.744Z,61.43
2023-05-16T10:22:06.660Z,57.88
2023-05-16T10:24:58.084Z,58.36
2023-05-16T10:27:25.912Z,57.59
2023-05-16T10:29:55.000Z,58.11
2023-05-16T10:32:24.426Z,55.08
2023-05-16T10:34:51.880Z,57.48
2023-05-16T10:37:18.717Z,58.76
2023-05-16T10:39:46.338Z,57.62
2023-05-16T10:42:18.313Z,57.47
2023-05-16T10:44:54.628Z,58.33
2023-05-16T10:47:25.067Z,55.26
2023-05-16T10:49:51.770Z,57.33
2023-05-16T10:52:18.352Z,58.64
2023-05-16T10:54:54.558Z,58.83
2023-05-16T10:57:24.424Z,58.15
2023-05-16T10:59:52.457Z,56.07
2023-05-16T11:02:29.101Z,57.51
2023-05-16T11:04:59.626Z,56.85
2023-05-16T11:07:34.628Z,55.20
2023-05-16T11:10:09.895Z,53.41
2023-05-16T11:12:49.393Z,52.25
2023-05-16T11:15:25.061Z,52.35
2023-05-16T11:18:08.812Z,50.83
2023-05-16T11:20:40.429Z,52.14
2023-05-16T11:23:18.820Z,51.35
2023-05-16T11:25:46.514Z,52.42
2023-05-16T11:28:14.709Z,51.63
2023-05-16T11:30:52.733Z,53.73
2023-05-16T11:33:19.523Z,51.93
2023-05-16T11:36:15.038Z,52.69
2023-05-16T11:38:43.866Z,53.21
2023-05-16T11:41:10.644Z,54.91
2023-05-16T11:43:39.484Z,55.73
2023-05-16T11:46:06.449Z,56.04
2023-05-16T11:48:36.707Z,54.45
2023-05-16T11:51:03.987Z,55.25
2023-05-16T11:53:30.603Z,55.56
2023-05-16T11:56:00.229Z,56.25
2023-05-16T11:58:27.734Z,57.86
2023-05-16T12:00:54.767Z,57.60
2023-05-16T12:03:23.876Z,58.05
2023-05-16T12:05:53.194Z,59.63
2023-05-16T12:08:21.982Z,58.83
2023-05-16T12:10:53.184Z,60.76
2023-05-16T12:13:22.826Z,61.03
2023-05-16T12:15:51.204Z,57.80
2023-05-16T12:18:20.572Z,59.21
2023-05-16T12:20:47.542Z,56.12
2023-05-16T12:23:14.490Z,57.81
2023-05-16T12:25:46.532Z,57.80
2023-05-16T12:28:14.603Z,58.55
2023-05-16T12:30:43.159Z,58.32
2023-05-16T12:33:15.619Z,58.42
2023-05-16T12:35:45.313Z,57.82
2023-05-16T12:38:14.103Z,59.78
2023-05-16T12:40:42.638Z,60.99
2023-05-16T12:43:15.528Z,63.05
2023-05-16T12:45:43.278Z,64.86
2023-05-16T12:48:14.226Z,65.57
2023-05-16T12:50:41.821Z,65.33
2023-05-16T12:53:13.911Z,65.64
2023-05-16T12:55:40.763Z,61.34
2023-05-16T12:58:08.378Z,62.68
2023-05-16T13:00:36.472Z,63.16
2023-05-16T13:03:03.764Z,63.30
2023-05-16T13:05:30.489Z,63.55
2023-05-16T13:07:57.061Z,59.63
2023-05-16T13:10:23.728Z,62.19
2023-05-16T13:12:50.342Z,59.96
2023-05-16T13:15:17.083Z,58.67
2023-05-16T13:17:48.413Z,58.98
2023-05-16T13:20:16.006Z,57.71
2023-05-16T13:22:43.953Z,58.81
2023-05-16T13:25:11.398Z,58.22
2023-05-16T13:27:37.988Z,60.81
2023-05-16T13:30:05.111Z,59.72
2023-05-16T13:32:31.780Z,60.44
2023-05-16T13:34:58.444Z,59.76
2023-05-16T13:37:25.049Z,61.40
2023-05-16T13:39:52.600Z,61.66
2023-05-16T13:42:19.181Z,61.13
2023-05-16T13:44:45.805Z,60.09
2023-05-16T13:47:12.515Z,59.66
2023-05-16T13:49:39.081Z,58.58
2023-05-16T13:52:08.687Z,56.89
2023-05-16T13:54:35.697Z,57.30
2023-05-16T13:57:03.606Z,56.74
2023-05-16T13:59:55.203Z,57.32
2023-05-16T14:02:17.147Z,59.92
2023-05-16T14:04:43.691Z,61.38
2023-05-16T14:07:10.400Z,60.28
2023-05-16T14:09:39.339Z,59.78
2023-05-16T14:12:07.503Z,56.34
2023-05-16T14:14:35.266Z,56.75
2023-05-16T14:17:02.379Z,57.74
2023-05-16T14:19:29.170Z,57.90
2023-05-16T14:21:56.151Z,58.45
2023-05-16T14:24:23.010Z,57.77
2023-05-16T14:26:57.581Z,57.36
2023-05-16T14:29:25.408Z,58.69
2023-05-16T14:31:52.183Z,58.86
2023-05-16T14:34:18.746Z,59.95
2023-05-16T14:36:48.495Z,57.37
2023-05-16T14:39:15.680Z,57.82
2023-05-16T14:41:42.217Z,57.52
2023-05-16T14:44:08.739Z,57.67
2023-05-16T14:46:35.855Z,57.92
2023-05-16T14:49:02.617Z,56.58
2023-05-16T14:51:29.400Z,57.18
2023-05-16T14:53:56.009Z,59.06
2023-05-16T14:56:22.718Z,58.04
2023-05-16T14:58:49.352Z,57.15
2023-05-16T15:01:16.682Z,57.93
2023-05-16T15:03:54.466Z,55.88
2023-05-16T15:06:21.685Z,58.04
2023-05-16T15:08:48.254Z,55.24
2023-05-16T15:11:14.996Z,55.59
2023-05-16T15:13:41.607Z,56.81
2023-05-16T15:16:08.468Z,56.32
2023-05-16T15:18:35.159Z,53.43
2023-05-16T15:21:01.748Z,54.28
2023-05-16T15:23:28.411Z,52.84
2023-05-16T15:25:55.285Z,52.97
2023-05-16T15:28:22.723Z,52.33
2023-05-16T15:30:51.143Z,51.98
2023-05-16T15:33:17.733Z,53.38
2023-05-16T15:35:44.528Z,52.29
2023-05-16T15:38:11.151Z,52.71
2023-05-16T15:40:37.867Z,52.78
2023-05-16T15:43:04.394Z,53.25
2023-05-16T15:45:31.357Z,55.08
2023-05-16T15:47:58.025Z,54.40
2023-05-16T15:50:24.632Z,54.77
2023-05-16T15:52:51.460Z,56.26
2023-05-16T15:55:18.032Z,55.37
2023-05-16T15:57:44.973Z,57.60
2023-05-16T16:00:12.487Z,56.39
2023-05-16T16:02:40.207Z,57.01
2023-05-16T16:05:07.486Z,57.51
2023-05-16T16:07:34.083Z,58.16
2023-05-16T16:10:00.773Z,58.23
2023-05-16T16:12:29.675Z,59.60
2023-05-16T16:14:56.321Z,60.35
2023-05-16T16:17:22.844Z,61.49
2023-05-16T16:19:49.484Z,62.01
2023-05-16T16:22:16.908Z,61.95
2023-05-16T16:24:43.461Z,60.77
2023-05-16T16:27:10.068Z,62.43
2023-05-16T16:29:36.604Z,62.66
2023-05-16T16:32:03.366Z,62.31
2023-05-16T16:34:29.959Z,62.19
2023-05-16T16:36:56.808Z,63.03
2023-05-16T16:39:23.565Z,64.68
2023-05-16T16:41:50.189Z,64.55
2023-05-16T16:44:17.121Z,63.43
2023-05-16T16:46:43.945Z,64.73
2023-05-16T16:49:10.625Z,65.46
2023-05-16T16:51:37.518Z,65.41
2023-05-16T16:54:04.169Z,66.26
2023-05-16T16:56:30.840Z,64.56
2023-05-16T16:58:57.603Z,65.30
2023-05-16T17:01:24.421Z,65.93
2023-05-16T17:03:51.037Z,65.85
2023-05-16T17:06:17.603Z,65.86
2023-05-16T17:08:45.447Z,65.68
2023-05-16T17:11:12.264Z,66.48
2023-05-16T17:13:41.972Z,67.27
2023-05-16T17:16:10.117Z,68.15
2023-05-16T17:18:37.100Z,67.16
2023-05-16T17:21:03.651Z,67.28
2023-05-16T17:23:30.266Z,67.58
2023-05-16T17:25:57.088Z,68.29
2023-05-16T17:28:23.643Z,68.93
2023-05-16T17:30:50.233Z,69.10
2023-05-16T17:33:16.775Z,69.31
2023-05-16T17:35:43.664Z,69.43
2023-05-16T17:38:11.123Z,70.00
2023-05-16T17:40:37.930Z,70.02
2023-05-16T17:43:05.666Z,69.40
2023-05-16T17:45:33.930Z,67.91
2023-05-16T17:48:00.727Z,68.17
2023-05-16T17:50:29.284Z,68.12
2023-05-16T17:52:55.863Z,68.43
2023-05-16T17:55:23.248Z,68.81
2023-05-16T17:57:50.069Z,68.88
2023-05-16T18:00:17.762Z,69.09
2023-05-16T18:02:44.814Z,69.28
2023-05-16T18:07:38.942Z,68.85
2023-05-16T18:10:06.080Z,69.69
2023-05-16T18:12:32.888Z,70.85
2023-05-16T18:14:59.421Z,68.77
2023-05-16T18:17:25.982Z,67.74
2023-05-16T18:19:52.883Z,67.91
2023-05-16T18:22:19.478Z,68.74
2023-05-16T18:24:46.072Z,68.12
2023-05-16T18:27:12.850Z,68.04
2023-05-16T18:29:39.486Z,68.79
2023-05-16T18:32:06.335Z,68.99
2023-05-16T18:34:34.101Z,69.73
2023-05-16T18:37:00.706Z,70.66
2023-05-16T18:39:27.289Z,70.45
2023-05-16T18:41:54.118Z,70.90
2023-05-16T18:44:20.634Z,71.63
2023-05-16T18:46:47.980Z,72.51
2023-05-16T18:49:14.760Z,72.61
2023-05-16T18:51:41.878Z,72.80
2023-05-16T18:54:08.496Z,73.34
2023-05-16T18:56:35.155Z,72.99
2023-05-16T18:59:04.557Z,73.16
2023-05-16T19:01:31.129Z,73.51
2023-05-16T19:03:57.989Z,74.45
2023-05-16T19:06:24.619Z,74.79
2023-05-16T19:08:51.348Z,75.32
2023-05-16T19:11:18.229Z,75.01
2023-05-16T19:13:47.204Z,76.08
2023-05-16T19:16:14.155Z,76.41
2023-05-16T19:18:40.842Z,76.29
2023-05-16T19:21:08.639Z,75.92
2023-05-16T19:23:35.423Z,76.05
2023-05-16T19:26:02.220Z,76.21
2023-05-16T19:28:28.869Z,76.30
2023-05-16T19:30:55.538Z,76.91
2023-05-16T19:33:22.387Z,77.21
2023-05-16T19:35:51.683Z,77.37
2023-05-16T19:38:19.895Z,77.27
2023-05-16T19:40:47.181Z,77.68
2023-05-16T19:43:13.729Z,77.47
2023-05-16T19:45:40.513Z,77.62
2023-05-16T19:48:08.141Z,77.87
2023-05-16T19:50:35.610Z,78.09
2023-05-16T19:53:02.914Z,78.75
2023-05-16T19:55:29.921Z,78.58
2023-05-16T19:57:57.416Z,79.18
2023-05-16T20:00:24.789Z,78.64
2023-05-16T20:02:51.467Z,78.92
2023-05-16T20:05:22.251Z,78.86
2023-05-16T20:07:49.666Z,78.90
2023-05-16T20:10:17.625Z,79.19
2023-05-16T20:12:45.096Z,78.85
2023-05-16T20:15:12.088Z,79.40
2023-05-16T20:17:40.189Z,79.28
2023-05-16T20:20:08.986Z,79.55
2023-05-16T20:22:39.448Z,79.83
2023-05-16T20:25:06.935Z,79.82
2023-05-16T20:27:33.750Z,80.68
2023-05-16T20:30:00.696Z,80.93
2023-05-16T20:32:27.816Z,81.42
2023-05-16T20:34:54.509Z,81.62
2023-05-16T20:37:23.306Z,82.35
2023-05-16T20:39:49.925Z,82.54
2023-05-16T20:42:16.663Z,83.13
2023-05-16T20:44:44.195Z,83.46
2023-05-16T20:47:10.781Z,84.22
2023-05-16T20:49:37.736Z,84.04
2023-05-16T20:52:05.061Z,84.27
2023-05-16T20:54:31.962Z,84.36
2023-05-16T20:56:58.492Z,85.06
2023-05-16T20:59:25.113Z,85.26
2023-05-16T21:01:52.102Z,85.27
2023-05-16T21:04:18.863Z,85.09
2023-05-16T21:06:45.748Z,85.58
2023-05-16T21:09:12.397Z,85.53
2023-05-16T21:11:39.129Z,85.62
2023-05-16T21:14:05.691Z,85.91
2023-05-16T21:16:32.234Z,86.33
2023-05-16T21:19:01.713Z,86.49
2023-05-16T21:21:28.445Z,87.13
2023-05-16T21:23:56.174Z,86.96
2023-05-16T21:26:23.068Z,87.25
2023-05-16T21:28:55.140Z,87.15
2023-05-16T21:31:22.780Z,87.57
2023-05-16T21:33:51.947Z,87.07
2023-05-16T21:36:19.880Z,87.50
2023-05-16T21:38:46.740Z,87.33
2023-05-16T21:41:13.834Z,87.65
2023-05-16T21:43:40.834Z,87.88
2023-05-16T21:46:07.399Z,88.30
2023-05-16T21:48:34.086Z,88.44
2023-05-16T21:51:00.936Z,88.66
2023-05-16T21:53:27.744Z,89.14
2023-05-16T21:55:54.300Z,89.24
2023-05-16T21:58:22.086Z,89.24
2023-05-16T22:00:49.631Z,89.58
2023-05-16T22:03:19.193Z,89.87
2023-05-16T22:05:48.855Z,89.90
2023-05-16T22:08:15.663Z,90.08
2023-05-16T22:10:42.686Z,90.19
2023-05-16T22:13:09.539Z,90.23
2023-05-16T22:15:36.276Z,89.95
2023-05-16T22:18:03.156Z,90.13
2023-05-16T22:20:29.864Z,90.49
2023-05-16T22:22:56.996Z,90.78
2023-05-16T22:25:23.629Z,90.78
2023-05-16T22:27:50.327Z,90.64
2023-05-16T22:30:17.065Z,90.82
2023-05-16T22:32:45.725Z,91.16
2023-05-16T22:35:13.550Z,91.67
2023-05-16T22:37:40.210Z,91.63
2023-05-16T22:40:08.242Z,91.80
2023-05-16T22:42:34.806Z,92.02
2023-05-16T22:45:01.309Z,92.24
2023-05-16T22:47:28.865Z,92.51
2023-05-16T22:49:55.729Z,92.58
2023-05-16T22:52:22.474Z,92.92
2023-05-16T22:54:49.240Z,93.14
2023-05-16T22:57:16.019Z,93.11
2023-05-16T22:59:42.854Z,93.31
2023-05-16T23:02:09.657Z,93.49
2023-05-16T23:04:36.404Z,93.85
2023-05-16T23:07:05.704Z,93.84
2023-05-16T23:09:32.274Z,93.95
2023-05-16T23:11:59.206Z,94.25
2023-05-16T23:14:26.228Z,94.45
2023-05-16T23:16:52.875Z,94.63
2023-05-16T23:19:19.650Z,94.87
2023-05-16T23:21:46.322Z,94.99
2023-05-16T23:24:12.840Z,95.24
2023-05-16T23:26:39.392Z,95.38
2023-05-16T23:29:06.228Z,95.42
2023-05-16T23:31:32.869Z,95.58
2023-05-16T23:33:59.600Z,96.15
2023-05-16T23:36:26.289Z,96.04
2023-05-16T23:38:52.863Z,96.15
2023-05-16T23:41:19.407Z,96.35
2023-05-16T23:43:45.928Z,96.42
2023-05-16T23:46:12.418Z,96.56
2023-05-16T23:48:39.981Z,96.63
2023-05-16T23:51:07.802Z,96.73
2023-05-16T23:53:37.174Z,97.14
2023-05-16T23:56:03.863Z,97.37
2023-05-16T23:58:30.578Z,97.47
